Terminal Aerodrome Forecast
Issued by NWS

Current Version | Previous Version | Text Only | Print | Product List | Glossary Off
Versions: 1 2 3 4 5 6 7 8 9 10 11 12 13 14 15 16 17 18 19 20 21 22

348
FTUS41 KPBZ 280659 AAA
TAFHLG
TAF AMD
KHLG 280659Z 2807/2906 10003KT 5SM BR BKN050
      TEMPO 2807/2810 2SM BR
     FM281200 17005KT P6SM BKN020
     FM281600 20008KT P6SM BKN035
     FM281900 21010KT P6SM -SHRA VCTS OVC035CB
     FM282300 20010KT P6SM VCSH BKN050
     FM290300 21010KT 5SM -SHRA BR VCTS OVC035CB=

USA.gov is the U.S. government's official web portal to all federal, state and local government web resources and services.